Time;durP1;ratioP1;P1;durP2;ratioP2;P2;SDS_P1;SDS_P2;PMS_P1;PMS_P2;Temp;Humidity;BMP_temperature;BMP_pressure;BME280_temperature;BME280_humidity;BME280_pressure;Samples;Min_cycle;Max_cycle;Signal;HPM_P1;HPM_P2
2022/06/23 00:01:03;;;;;;;5.35;3.42;;;;;;;18.62;56.07;100852.16;5024666;28;20045;-70
2022/06/23 00:03:35;;;;;;;5.40;3.45;;;;;;;18.74;56.03;100844.97;5025886;28;20118;-70
2022/06/23 00:06:05;;;;;;;5.20;3.47;;;;;;;18.65;56.03;100835.13;5025656;28;20146;-70
2022/06/23 00:08:32;;;;;;;4.68;3.30;;;;;;;18.62;56.20;100854.81;5024608;28;20460;-70
2022/06/23 00:10:59;;;;;;;8.02;3.47;;;;;;;18.49;57.01;100846.16;5023293;28;20041;-71
2022/06/23 00:13:34;;;;;;;7.72;3.33;;;;;;;18.55;57.39;100847.50;5023950;28;20050;-71
2022/06/23 00:16:01;;;;;;;6.07;3.50;;;;;;;18.46;57.68;100852.56;5023783;28;20049;-71
2022/06/23 00:18:33;;;;;;;8.05;3.70;;;;;;;18.32;58.27;100852.00;5023528;28;20488;-71
2022/06/23 00:21:02;;;;;;;7.55;3.90;;;;;;;18.29;58.67;100842.47;5024150;28;20045;-71
2022/06/23 00:23:32;;;;;;;6.90;3.67;;;;;;;18.08;59.70;100852.19;5025853;28;20057;-71
2022/06/23 00:26:01;;;;;;;7.47;3.78;;;;;;;18.26;58.57;100857.81;5024519;28;20151;-71
2022/06/23 00:28:31;;;;;;;7.45;3.90;;;;;;;18.29;58.67;100850.44;5023572;28;20172;-70
2022/06/23 00:31:02;;;;;;;7.30;4.18;;;;;;;18.15;58.81;100858.69;5023605;28;20064;-70
2022/06/23 00:33:37;;;;;;;6.07;4.53;;;;;;;17.85;59.88;100855.84;5024514;28;20050;-70
2022/06/23 00:36:16;;;;;;;8.23;4.22;;;;;;;17.87;60.51;100854.78;5025434;28;20042;-70
2022/06/23 00:38:43;;;;;;;7.22;4.22;;;;;;;17.69;60.74;100863.34;5024604;28;20048;-70
2022/06/23 00:41:16;;;;;;;9.75;4.30;;;;;;;17.49;61.66;100860.44;5024246;28;20259;-70
2022/06/23 00:43:45;;;;;;;6.43;4.20;;;;;;;17.58;61.30;100863.34;5022814;28;20034;-70
2022/06/23 00:46:22;;;;;;;11.60;4.40;;;;;;;17.52;61.98;100868.13;5024088;28;20429;-70
2022/06/23 00:48:55;;;;;;;6.18;4.18;;;;;;;17.77;61.45;100871.56;5003624;28;20092;-70
2022/06/23 00:51:26;;;;;;;8.00;4.10;;;;;;;17.62;61.34;100870.97;5005084;28;20054;-70
2022/06/23 00:53:58;;;;;;;8.67;4.37;;;;;;;17.56;62.02;100868.72;5006581;28;20050;-70
2022/06/23 00:56:38;;;;;;;7.85;4.80;;;;;;;17.65;62.21;100869.84;5004009;28;20465;-70
2022/06/23 00:59:15;;;;;;;5.93;4.28;;;;;;;17.83;61.78;100887.81;5007585;28;20126;-71
2022/06/23 01:01:47;;;;;;;15.07;5.82;;;;;;;17.77;61.87;100885.66;5013550;28;20049;-71
2022/06/23 01:04:23;;;;;;;7.82;4.53;;;;;;;17.61;62.96;100886.97;5024030;28;20096;-70
2022/06/23 01:06:55;;;;;;;11.60;4.75;;;;;;;17.59;63.13;100889.72;5024416;28;20091;-70
2022/06/23 01:09:29;;;;;;;12.27;5.13;;;;;;;17.56;62.92;100894.41;5022913;28;20076;-71
2022/06/23 01:12:01;;;;;;;6.30;4.45;;;;;;;17.56;63.34;100897.06;5023199;28;20042;-71
2022/06/23 01:14:34;;;;;;;;;;;;;;;17.47;63.66;100904.78;5023793;28;20498;-71
2022/06/23 01:17:09;;;;;;;14.52;5.00;;;;;;;17.38;64.36;100897.53;5026325;28;19944;-71
2022/06/23 01:20:09;;;;;;;8.73;4.88;;;;;;;17.31;64.26;100892.81;5021516;28;20379;-70
2022/06/23 01:23:03;;;;;;;8.77;4.90;;;;;;;17.38;64.73;100892.22;5003595;28;20050;-71
2022/06/23 01:25:55;;;;;;;8.48;4.55;;;;;;;17.50;64.10;100888.63;5006184;28;20579;-71
2022/06/23 01:28:26;;;;;;;10.80;4.97;;;;;;;17.43;64.15;100899.84;5003410;28;20096;-71
2022/06/23 01:30:58;;;;;;;7.72;4.95;;;;;;;17.40;64.13;100897.44;5006501;28;20289;-71
2022/06/23 01:33:34;;;;;;;10.38;5.60;;;;;;;17.32;64.76;100897.16;5024226;28;20061;-71
2022/06/23 01:36:07;;;;;;;8.93;4.80;;;;;;;17.23;65.23;100895.22;5022712;28;20045;-71
2022/06/23 01:38:47;;;;;;;7.75;5.22;;;;;;;17.19;65.35;100893.75;5025008;28;20505;-71
2022/06/23 01:41:22;;;;;;;7.47;4.70;;;;;;;17.06;65.97;100898.31;5024879;28;20134;-71
2022/06/23 01:43:59;;;;;;;8.00;5.03;;;;;;;17.14;66.09;100907.38;5024495;28;20046;-71
2022/06/23 01:46:31;;;;;;;8.18;4.72;;;;;;;17.15;65.84;100900.25;5027673;28;20049;-71
2022/06/23 01:49:02;;;;;;;7.10;4.88;;;;;;;17.27;65.65;100904.63;5027178;28;20046;-71
2022/06/23 01:51:32;;;;;;;8.30;5.07;;;;;;;17.20;65.94;100898.94;5028392;28;20099;-71
2022/06/23 01:54:09;;;;;;;6.70;4.60;;;;;;;16.93;66.82;100907.19;5028171;28;20091;-71
2022/06/23 01:56:45;;;;;;;7.53;4.95;;;;;;;16.99;67.10;100912.03;5026827;28;20099;-71
2022/06/23 01:59:26;;;;;;;8.57;4.57;;;;;;;17.20;65.85;100906.91;5024921;28;20045;-70
2022/06/23 02:02:07;;;;;;;7.45;4.63;;;;;;;17.16;65.85;100907.25;5027471;28;20041;-70
2022/06/23 02:04:39;;;;;;;7.03;5.00;;;;;;;16.75;67.37;100905.91;5026138;28;20092;-70
2022/06/23 02:07:19;;;;;;;9.85;4.88;;;;;;;16.49;68.65;100914.91;5026754;28;20509;-70
2022/06/23 02:09:48;;;;;;;7.95;5.22;;;;;;;16.75;68.50;100913.00;5026090;28;20049;-70
2022/06/23 02:12:21;;;;;;;7.00;4.97;;;;;;;16.95;67.23;100915.03;5027437;28;20053;-71
2022/06/23 02:14:57;;;;;;;12.73;5.32;;;;;;;16.95;66.51;100920.31;5014626;28;20088;-70
2022/06/23 02:17:41;;;;;;;10.52;5.10;;;;;;;16.97;66.59;100915.75;5027027;28;20107;-75
2022/06/23 02:20:26;;;;;;;7.72;5.10;;;;;;;17.10;66.46;100929.78;5026073;28;20083;-71
2022/06/23 02:23:03;;;;;;;7.90;5.18;;;;;;;17.15;66.08;100924.94;5027710;28;20072;-71
2022/06/23 02:25:37;;;;;;;9.07;5.90;;;;;;;16.92;66.85;100923.22;5033065;28;20063;-70
2022/06/23 02:28:13;;;;;;;8.00;5.13;;;;;;;16.91;67.61;100926.81;5040289;28;20091;-70
2022/06/23 02:30:45;;;;;;;9.88;5.70;;;;;;;16.80;68.14;100924.97;5044727;28;20045;-70
2022/06/23 02:33:21;;;;;;;9.48;5.75;;;;;;;16.85;67.98;100922.78;5027533;28;20045;-70
2022/06/23 02:35:57;;;;;;;11.05;5.45;;;;;;;17.06;67.53;100922.16;5026668;28;20481;-70
2022/06/23 02:38:27;;;;;;;16.92;5.75;;;;;;;16.89;68.34;100934.00;5028067;28;20468;-70
2022/06/23 02:40:57;;;;;;;12.15;6.35;;;;;;;17.00;67.43;100921.66;5026687;28;20056;-70
2022/06/23 02:43:30;;;;;;;9.50;6.13;;;;;;;16.95;67.96;100922.97;5025014;28;20088;-71
2022/06/23 02:46:24;;;;;;;7.97;5.88;;;;;;;16.82;68.08;100923.03;5027352;28;20045;-71
2022/06/23 02:49:23;;;;;;;11.52;5.28;;;;;;;16.83;68.53;100914.13;5026738;28;20037;-71
2022/06/23 02:52:15;;;;;;;10.07;6.25;;;;;;;16.67;69.30;100918.03;5024111;28;20726;-71
2022/06/23 02:54:53;;;;;;;9.70;5.90;;;;;;;16.54;69.73;100918.06;5027981;28;20488;-71
2022/06/23 02:57:36;;;;;;;11.25;6.22;;;;;;;16.44;70.58;100909.94;5026258;28;20049;-71
2022/06/23 03:00:06;;;;;;;;;;;;;;;16.29;71.26;100913.72;5015256;28;20037;-71
2022/06/23 03:02:38;;;;;;;12.73;6.60;;;;;;;16.23;71.29;100914.16;5025661;28;19921;-71
2022/06/23 03:05:13;;;;;;;9.65;6.20;;;;;;;16.28;71.64;100909.38;5022290;28;20414;-70
2022/06/23 03:07:43;;;;;;;10.70;6.03;;;;;;;16.28;71.65;100916.47;5024044;28;20045;-70
2022/06/23 03:10:17;;;;;;;10.80;5.93;;;;;;;16.26;71.91;100919.22;5024194;28;20077;-70
2022/06/23 03:12:49;;;;;;;8.82;6.03;;;;;;;16.30;71.69;100931.28;5025074;28;20077;-70
2022/06/23 03:15:22;;;;;;;9.30;6.13;;;;;;;16.75;70.38;100931.53;5024174;28;20677;-70
2022/06/23 03:17:57;;;;;;;10.18;6.00;;;;;;;16.92;69.77;100939.91;5018622;28;20041;-70
2022/06/23 03:20:37;;;;;;;8.43;5.90;;;;;;;16.79;70.82;100939.16;5025603;28;20142;-70
2022/06/23 03:23:10;;;;;;;10.35;6.40;;;;;;;16.85;71.04;100948.47;5026617;28;20075;-70
2022/06/23 03:25:41;;;;;;;11.93;5.90;;;;;;;16.83;71.24;100947.72;5026082;28;20041;-71
2022/06/23 03:28:14;;;;;;;10.55;6.40;;;;;;;16.93;70.71;100946.06;5025182;28;20050;-71
2022/06/23 03:30:46;;;;;;;9.30;6.28;;;;;;;16.66;71.77;100946.34;5024218;28;20103;-71
2022/06/23 03:33:21;;;;;;;8.02;6.60;;;;;;;16.63;72.58;100945.72;5025162;28;20426;-71
2022/06/23 03:35:53;;;;;;;11.60;6.82;;;;;;;16.57;72.74;100943.50;5025197;28;20494;-71
2022/06/23 03:43:59;;;;;;;11.60;6.57;;;;;;;16.82;72.12;100954.81;5026057;28;20052;-71
2022/06/23 03:46:32;;;;;;;18.02;7.57;;;;;;;16.60;73.16;100954.69;5024351;28;20053;-71
2022/06/23 03:49:08;;;;;;;9.95;6.57;;;;;;;16.62;73.47;100951.97;5023608;28;20058;-71
2022/06/23 03:51:38;;;;;;;10.65;6.72;;;;;;;16.53;74.10;100956.06;5021504;28;20068;-71
2022/06/23 03:54:13;;;;;;;12.82;6.93;;;;;;;16.84;72.82;100970.59;5025293;28;20421;-71
2022/06/23 03:56:47;;;;;;;10.50;7.07;;;;;;;16.85;73.00;100977.59;5025398;28;20049;-71
2022/06/23 03:59:16;;;;;;;11.60;6.80;;;;;;;16.71;73.84;100975.09;5024140;28;20041;-71
2022/06/23 04:01:49;;;;;;;11.32;7.43;;;;;;;16.91;73.10;100975.34;5025254;28;20050;-71
2022/06/23 04:04:19;;;;;;;11.95;6.80;;;;;;;17.10;72.30;100980.09;5024167;28;20422;-71
2022/06/23 04:06:47;;;;;;;14.90;7.05;;;;;;;17.22;72.06;100973.03;5024053;28;20049;-71
2022/06/23 04:09:18;;;;;;;12.93;7.82;;;;;;;17.44;71.56;100975.75;5024643;28;20046;-71
2022/06/23 04:12:05;;;;;;;10.57;6.45;;;;;;;17.67;70.73;100974.00;5024921;28;20045;-71
2022/06/23 04:14:45;;;;;;;10.27;7.10;;;;;;;17.60;70.93;100978.94;5024737;28;20041;-71
2022/06/23 04:17:18;;;;;;;9.70;7.13;;;;;;;17.61;71.09;100979.78;5023863;28;20107;-71
2022/06/23 04:19:50;;;;;;;14.70;7.50;;;;;;;17.61;71.78;100993.03;5025026;28;20091;-71
2022/06/23 04:22:25;;;;;;;12.50;6.88;;;;;;;17.86;70.38;100992.81;5025175;28;20480;-71
2022/06/23 04:24:56;;;;;;;12.95;7.10;;;;;;;17.96;70.11;100993.78;5024820;28;20058;-71
2022/06/23 04:27:27;;;;;;;11.55;6.70;;;;;;;18.28;68.68;100986.81;5023484;28;20632;-71
2022/06/23 04:29:58;;;;;;;10.90;6.83;;;;;;;18.19;69.45;100992.81;5025247;28;20045;-71
2022/06/23 04:32:27;;;;;;;11.60;7.20;;;;;;;18.06;70.02;101002.72;5025953;28;20116;-71
2022/06/23 04:34:58;;;;;;;12.32;6.85;;;;;;;18.20;69.55;100998.97;5025207;28;20120;-71
2022/06/23 04:37:33;;;;;;;12.38;6.68;;;;;;;18.21;69.89;100995.38;5024526;28;20049;-71
2022/06/23 04:40:08;;;;;;;9.43;7.10;;;;;;;18.38;68.85;100997.50;5023812;28;20064;-72
2022/06/23 04:42:38;;;;;;;12.48;7.13;;;;;;;18.72;68.53;101000.97;5024757;28;20445;-71
2022/06/23 04:45:27;;;;;;;12.88;7.45;;;;;;;19.07;66.75;101006.06;5024186;28;20099;-71
2022/06/23 04:47:56;;;;;;;13.10;7.57;;;;;;;19.15;66.85;101007.09;5023686;28;20049;-71
2022/06/23 04:50:40;;;;;;;9.95;6.72;;;;;;;18.30;70.02;101007.91;5022151;28;20041;-71
2022/06/23 04:53:15;;;;;;;11.73;7.00;;;;;;;18.75;68.51;101011.34;5024231;28;20116;-71
2022/06/23 04:55:42;;;;;;;11.10;7.20;;;;;;;18.89;68.58;101017.22;5024335;28;20072;-71
2022/06/23 04:58:16;;;;;;;12.45;7.10;;;;;;;19.08;68.35;101013.91;5023902;28;20099;-71
2022/06/23 05:00:46;;;;;;;12.27;7.78;;;;;;;19.46;66.75;101009.88;5025898;28;20046;-71
2022/06/23 05:03:18;;;;;;;11.45;7.30;;;;;;;19.61;66.02;101027.22;5024607;28;20046;-71
2022/06/23 05:05:53;;;;;;;;;;;;;;;19.15;68.23;101024.88;5025016;28;20072;-71
2022/06/23 05:08:26;;;;;;;10.52;7.30;;;;;;;19.49;67.39;101023.78;5023815;28;19987;-71
2022/06/23 05:11:00;;;;;;;20.00;7.68;;;;;;;19.83;65.57;101019.09;5023347;28;20123;-71
2022/06/23 05:13:30;;;;;;;13.02;6.70;;;;;;;20.10;65.11;101021.19;5023562;28;20053;-71
2022/06/23 05:16:05;;;;;;;10.32;7.40;;;;;;;20.13;64.96;101018.25;5025646;28;20106;-71
2022/06/23 05:18:34;;;;;;;10.13;6.78;;;;;;;20.30;64.21;101015.00;5028301;28;20120;-71
2022/06/23 05:21:05;;;;;;;14.15;6.78;;;;;;;20.49;64.50;101025.72;5027911;28;20041;-71
2022/06/23 05:23:40;;;;;;;7.90;6.70;;;;;;;20.50;64.11;101024.75;5028260;28;20104;-72
2022/06/23 05:26:12;;;;;;;15.13;7.85;;;;;;;20.27;63.98;101032.06;5028480;28;20046;-71
2022/06/23 05:28:39;;;;;;;9.98;6.78;;;;;;;20.29;64.38;101040.78;5027891;28;20095;-71
2022/06/23 05:31:11;;;;;;;13.85;7.32;;;;;;;20.10;65.60;101042.50;5027118;28;20045;-71
2022/06/23 05:33:46;;;;;;;14.82;7.47;;;;;;;20.04;65.64;101046.50;5027411;28;20140;-71
2022/06/23 05:36:19;;;;;;;9.40;6.50;;;;;;;20.80;63.93;101042.47;5027592;28;20049;-71
2022/06/23 05:38:50;;;;;;;19.52;7.93;;;;;;;21.65;62.78;101040.84;5025136;28;20099;-71
2022/06/23 05:41:23;;;;;;;16.70;6.63;;;;;;;21.87;60.01;101037.00;5026661;28;20084;-71
2022/06/23 05:43:54;;;;;;;9.40;6.22;;;;;;;22.07;59.55;101035.97;5029021;28;20043;-71
2022/06/23 05:46:23;;;;;;;13.80;6.75;;;;;;;22.55;57.77;101038.44;5029128;28;20403;-71
2022/06/23 05:48:57;;;;;;;8.90;6.28;;;;;;;21.60;60.58;101050.25;5024798;28;20091;-71
2022/06/23 05:51:31;;;;;;;10.77;6.50;;;;;;;22.63;57.52;101046.56;5026386;28;20045;-71
2022/06/23 05:54:03;;;;;;;10.50;6.70;;;;;;;23.00;55.37;101040.28;5027535;28;20460;-71
2022/06/23 05:56:34;;;;;;;11.85;6.95;;;;;;;23.06;56.89;101043.19;5025656;28;20599;-71
2022/06/23 05:59:04;;;;;;;10.48;6.20;;;;;;;23.54;55.88;101047.34;5027186;28;20390;-72
2022/06/23 06:01:34;;;;;;;10.60;6.47;;;;;;;23.23;55.12;101049.56;5028268;28;20485;-71
2022/06/23 06:04:06;;;;;;;9.35;5.80;;;;;;;22.61;56.33;101037.84;5025671;28;20034;-71
2022/06/23 06:06:34;;;;;;;8.18;6.40;;;;;;;23.18;54.46;101041.13;5008988;28;20143;-71
2022/06/23 06:11:54;;;;;;;10.05;5.63;;;;;;;23.77;53.97;101049.34;5006807;28;20547;-71
2022/06/23 06:14:25;;;;;;;6.75;5.00;;;;;;;24.28;51.68;101052.22;5008936;28;20056;-71
2022/06/23 06:16:53;;;;;;;7.93;5.15;;;;;;;24.56;50.27;101045.63;5020689;28;20103;-71
2022/06/23 06:19:24;;;;;;;7.88;5.10;;;;;;;25.14;49.00;101049.16;5027263;28;20068;-71
2022/06/23 06:21:55;;;;;;;9.35;4.95;;;;;;;25.49;46.07;101047.16;5025850;28;20091;-71
2022/06/23 06:24:30;;;;;;;6.40;4.70;;;;;;;25.76;46.92;101046.03;5028444;28;20081;-71
2022/06/23 06:27:00;;;;;;;8.90;4.43;;;;;;;25.75;46.68;101047.84;5025323;28;20065;-71
2022/06/23 06:29:32;;;;;;;8.43;4.78;;;;;;;25.54;46.64;101047.53;5027046;28;20413;-71
2022/06/23 06:32:16;;;;;;;9.48;4.60;;;;;;;25.40;47.50;101050.84;5026885;28;20573;-71
2022/06/23 06:34:48;;;;;;;7.53;4.68;;;;;;;25.85;48.64;101051.19;5026437;28;20046;-71
2022/06/23 06:37:18;;;;;;;7.95;5.07;;;;;;;25.28;46.61;101046.81;5027347;28;20045;-71
2022/06/23 06:39:48;;;;;;;5.68;4.43;;;;;;;25.45;48.60;101057.41;5025436;28;20045;-71
2022/06/23 06:42:19;;;;;;;10.32;5.20;;;;;;;26.26;44.83;101043.06;5026434;28;20092;-71
2022/06/23 06:44:50;;;;;;;9.70;4.75;;;;;;;26.34;45.47;101046.56;5024510;28;20494;-71
2022/06/23 06:47:19;;;;;;;8.00;4.75;;;;;;;26.97;44.98;101043.75;5027781;28;20383;-71
2022/06/23 06:49:46;;;;;;;8.80;4.80;;;;;;;26.82;45.27;101039.28;5030619;28;20061;-71
2022/06/23 06:52:13;;;;;;;7.90;4.78;;;;;;;26.83;46.11;101041.00;5026655;28;20453;-71
2022/06/23 06:54:44;;;;;;;8.40;5.10;;;;;;;26.78;45.45;101036.09;5027116;28;20530;-71
2022/06/23 06:57:14;;;;;;;5.07;4.47;;;;;;;26.79;43.26;101039.63;5025776;28;20055;-71
2022/06/23 06:59:47;;;;;;;8.02;4.47;;;;;;;26.23;44.11;101038.88;5023588;28;20045;-71
2022/06/23 07:02:19;;;;;;;7.80;4.85;;;;;;;26.69;43.30;101028.22;5025573;28;20563;-71
2022/06/23 07:04:48;;;;;;;;;;;;;;;26.68;45.68;101026.59;5025587;28;20452;-71
2022/06/23 07:07:25;;;;;;;9.60;5.10;;;;;;;27.26;44.60;101037.66;5026825;28;20374;-71
2022/06/23 07:09:58;;;;;;;7.63;4.80;;;;;;;26.97;44.50;101037.53;5026864;28;20449;-71
2022/06/23 07:12:31;;;;;;;8.05;4.93;;;;;;;27.25;45.15;101029.75;5026992;28;20049;-71
2022/06/23 07:15:06;;;;;;;9.55;5.03;;;;;;;27.93;42.10;101035.06;5025783;28;20049;-71
2022/06/23 07:17:38;;;;;;;10.07;5.43;;;;;;;28.41;39.64;101022.91;5024709;28;20107;-71
2022/06/23 07:20:12;;;;;;;9.57;4.25;;;;;;;28.20;42.50;101028.19;5025072;28;20067;-71
2022/06/23 07:22:46;;;;;;;6.65;4.00;;;;;;;29.11;40.33;101022.28;5024997;28;20046;-71
2022/06/23 07:25:19;;;;;;;17.77;4.70;;;;;;;28.50;41.65;101019.91;5026301;28;20068;-71
2022/06/23 07:27:51;;;;;;;14.25;4.47;;;;;;;28.85;41.04;101028.22;5027793;28;20049;-71
2022/06/23 07:30:19;;;;;;;6.35;4.20;;;;;;;28.79;41.35;101024.41;5025636;28;20537;-71
2022/06/23 07:32:51;;;;;;;11.85;4.28;;;;;;;29.61;39.85;101027.53;5025422;28;20064;-71
2022/06/23 07:35:27;;;;;;;8.70;4.10;;;;;;;30.12;40.40;101027.28;5025186;28;20076;-71
2022/06/23 07:37:59;;;;;;;10.23;3.83;;;;;;;29.88;39.27;101029.44;5025667;28;20045;-71
2022/06/23 07:40:30;;;;;;;11.27;4.05;;;;;;;30.28;39.76;101030.50;5024366;28;20054;-71
2022/06/23 07:43:05;;;;;;;6.32;3.90;;;;;;;30.25;38.60;101030.91;5026814;28;20771;-71
2022/06/23 07:45:36;;;;;;;10.00;3.80;;;;;;;30.53;37.90;101030.84;5025612;28;20045;-71
2022/06/23 07:48:03;;;;;;;6.50;3.63;;;;;;;30.95;36.80;101026.19;5023305;28;20045;-71
2022/06/23 07:50:30;;;;;;;7.05;3.95;;;;;;;30.17;35.85;101024.81;5025015;28;20053;-71
2022/06/23 07:52:58;;;;;;;5.78;3.60;;;;;;;29.55;35.11;101031.00;5027190;28;20045;-71
2022/06/23 07:55:28;;;;;;;19.08;4.20;;;;;;;29.64;42.43;101026.31;5024648;28;20126;-71
2022/06/23 07:57:56;;;;;;;7.47;3.78;;;;;;;29.65;38.10;101025.25;5025178;28;20048;-71
2022/06/23 08:00:24;;;;;;;4.75;3.58;;;;;;;30.20;34.61;101032.50;5023023;28;20484;-71
2022/06/23 08:03:00;;;;;;;6.15;3.72;;;;;;;30.06;34.30;101033.47;5026614;28;20114;-71
2022/06/23 08:05:33;;;;;;;7.50;3.97;;;;;;;30.35;33.63;101028.66;5023480;28;20042;-71
2022/06/23 08:08:00;;;;;;;5.88;3.60;;;;;;;29.88;35.61;101029.44;5023805;28;20069;-71
2022/06/23 08:10:31;;;;;;;5.18;3.78;;;;;;;30.86;33.93;101020.09;5024935;28;20088;-71
2022/06/23 08:13:00;;;;;;;6.13;4.00;;;;;;;31.20;36.19;101035.41;5024717;28;20045;-71
2022/06/23 08:18:26;;;;;;;8.68;3.70;;;;;;;31.73;36.53;101029.00;5022819;28;20422;-71
2022/06/23 08:21:01;;;;;;;5.68;3.72;;;;;;;31.63;32.07;101033.19;5024655;28;20046;-71
2022/06/23 08:23:31;;;;;;;7.57;3.90;;;;;;;32.04;32.53;101020.16;5025208;28;20440;-71
2022/06/23 08:26:01;;;;;;;9.15;3.92;;;;;;;32.12;34.73;101028.13;5026163;28;20091;-71
2022/06/23 08:28:29;;;;;;;7.18;3.55;;;;;;;32.36;30.31;101020.31;5024474;28;20052;-71
2022/06/23 08:30:55;;;;;;;8.13;3.25;;;;;;;32.74;31.78;101018.53;5023404;28;20107;-71
2022/06/23 08:33:22;;;;;;;5.47;3.30;;;;;;;32.82;31.20;101017.44;5025776;28;20103;-72
2022/06/23 08:35:52;;;;;;;5.93;3.55;;;;;;;32.06;31.62;101022.69;5024657;28;20119;-71
2022/06/23 08:38:21;;;;;;;5.22;3.40;;;;;;;31.67;30.39;101018.19;5024033;28;20050;-71
2022/06/23 08:41:12;;;;;;;5.15;3.33;;;;;;;32.37;32.17;101020.13;5023927;28;20046;-71
2022/06/23 08:43:42;;;;;;;9.93;3.35;;;;;;;32.30;31.66;101022.84;5023731;28;20045;-71
2022/06/23 08:46:18;;;;;;;3.83;3.17;;;;;;;32.92;28.45;101009.63;5023485;28;20685;-71
2022/06/23 08:48:52;;;;;;;6.35;3.13;;;;;;;33.07;33.03;101015.59;5023228;28;20490;-71
2022/06/23 08:51:23;;;;;;;8.77;3.15;;;;;;;33.04;33.98;101011.41;5026799;28;20038;-71
2022/06/23 08:54:01;;;;;;;4.85;3.13;;;;;;;33.20;29.65;101015.53;5029509;28;20045;-71
2022/06/23 08:56:35;;;;;;;7.15;3.05;;;;;;;33.69;26.46;101006.56;5028599;28;20076;-71
2022/06/23 08:59:13;;;;;;;6.15;2.80;;;;;;;34.06;26.99;101008.25;5028003;28;20061;-71
2022/06/23 09:01:46;;;;;;;4.63;2.50;;;;;;;34.38;23.42;100995.34;5028576;28;20042;-71
2022/06/23 09:04:21;;;;;;;7.40;2.80;;;;;;;33.58;28.19;100997.22;5028822;28;20481;-71
2022/06/23 09:06:55;;;;;;;5.25;2.53;;;;;;;32.84;26.01;101001.75;5028442;28;20517;-71
2022/06/23 09:09:32;;;;;;;6.95;3.13;;;;;;;31.83;28.82;101002.28;5026853;28;20049;-71
2022/06/23 09:12:11;;;;;;;6.88;2.90;;;;;;;32.89;25.47;100993.78;5026938;28;20049;-71
2022/06/23 09:15:06;;;;;;;8.35;2.80;;;;;;;32.42;26.99;100985.00;5027320;28;20595;-71
2022/06/23 09:17:57;;;;;;;6.53;3.08;;;;;;;32.39;27.48;100990.88;5027735;28;20187;-71
2022/06/23 09:20:46;;;;;;;3.53;2.30;;;;;;;33.26;28.54;100979.28;5026385;28;20095;-71
2022/06/23 09:23:37;;;;;;;5.05;2.38;;;;;;;34.00;26.53;100970.25;5028911;28;20478;-71
2022/06/23 09:26:14;;;;;;;7.43;2.70;;;;;;;34.18;26.31;100975.72;5028283;28;20080;-71
2022/06/23 09:28:52;;;;;;;4.95;2.67;;;;;;;34.68;29.67;100968.16;5025687;28;20288;-71
2022/06/23 09:31:22;;;;;;;5.07;3.03;;;;;;;34.42;28.89;100972.03;5026670;28;20049;-71
2022/06/23 09:34:02;;;;;;;5.00;2.70;;;;;;;32.96;26.16;100967.41;5026546;28;20103;-71
2022/06/23 09:36:58;;;;;;;6.38;2.90;;;;;;;33.37;27.13;100972.31;5027555;28;20088;-71
2022/06/23 09:40:05;;;;;;;4.00;2.40;;;;;;;33.33;23.52;100962.94;5027208;28;20041;-71
2022/06/23 09:42:53;;;;;;;2.80;2.33;;;;;;;32.61;28.73;100958.84;5027891;28;20099;-71
2022/06/23 09:45:46;;;;;;;5.00;2.28;;;;;;;32.64;22.81;100959.22;5028238;28;20192;-71
2022/06/23 09:48:30;;;;;;;6.90;2.30;;;;;;;33.65;24.08;100959.94;5022330;28;20041;-71
2022/06/23 09:51:12;;;;;;;7.20;2.80;;;;;;;32.04;24.40;100962.41;5027565;28;20072;-71
2022/06/23 09:54:05;;;;;;;7.25;2.90;;;;;;;32.06;25.55;100963.00;5027700;28;20038;-71
2022/06/23 09:56:49;;;;;;;4.68;2.95;;;;;;;31.89;27.63;100962.66;5025868;28;20046;-71
2022/06/23 09:59:35;;;;;;;5.13;2.80;;;;;;;32.63;26.15;100963.00;5005520;28;20111;-71
2022/06/23 10:02:11;;;;;;;5.63;2.53;;;;;;;33.32;26.32;100956.69;5007724;28;20490;-71
2022/06/23 10:04:51;;;;;;;4.28;2.75;;;;;;;33.42;25.37;100957.00;5011309;28;20099;-71
2022/06/23 10:08:01;;;;;;;6.57;2.78;;;;;;;32.12;24.07;100954.88;5029192;28;20434;-71
2022/06/23 10:10:45;;;;;;;6.43;2.70;;;;;;;31.95;24.58;100947.38;5015399;28;20406;-71
2022/06/23 10:13:46;;;;;;;4.63;2.80;;;;;;;32.05;24.87;100945.06;5027183;28;20041;-71
2022/06/23 10:16:34;;;;;;;6.25;2.70;;;;;;;31.94;28.30;100948.44;5026460;28;20045;-71
2022/06/23 10:19:25;;;;;;;3.85;2.60;;;;;;;32.21;26.39;100941.91;5005113;28;20042;-71
2022/06/23 10:22:06;;;;;;;6.40;2.63;;;;;;;32.47;25.76;100939.06;5006040;28;20046;-71
2022/06/23 10:25:08;;;;;;;4.35;2.40;;;;;;;32.90;28.87;100941.09;5007758;28;20115;-72
2022/06/23 10:27:59;;;;;;;5.57;2.88;;;;;;;34.55;27.20;100935.63;5008072;28;20107;-69
2022/06/23 10:30:32;;;;;;;7.03;2.72;;;;;;;34.25;26.79;100927.47;5007648;28;20095;-69
2022/06/23 10:33:11;;;;;;;7.03;2.70;;;;;;;34.36;22.98;100921.25;5007846;28;20637;-69
2022/06/23 10:36:10;;;;;;;7.53;2.72;;;;;;;32.60;22.95;100924.59;5016986;28;20033;-69
2022/06/23 10:38:51;;;;;;;8.50;3.08;;;;;;;33.14;23.23;100929.47;5025118;28;20476;-69
2022/06/23 10:41:44;;;;;;;6.90;2.80;;;;;;;32.04;25.72;100925.22;5026079;28;20648;-69
2022/06/23 10:44:41;;;;;;;4.38;2.40;;;;;;;32.38;26.03;100915.91;5025530;28;20417;-69
2022/06/23 10:47:20;;;;;;;7.95;2.80;;;;;;;33.14;25.06;100921.31;5025661;28;20096;-70
2022/06/23 10:50:06;;;;;;;5.95;2.90;;;;;;;33.17;22.19;100920.84;5026868;28;20095;-70
2022/06/23 10:52:50;;;;;;;7.10;2.55;;;;;;;33.56;23.72;100915.03;5026892;28;20111;-70
2022/06/23 10:55:47;;;;;;;4.72;2.30;;;;;;;32.93;23.74;100913.53;5025368;28;20099;-69
2022/06/23 10:58:40;;;;;;;4.05;2.20;;;;;;;34.01;25.93;100903.88;5027458;28;20045;-70
2022/06/23 11:01:31;;;;;;;4.88;2.58;;;;;;;33.89;23.85;100894.84;5025689;28;20048;-69
2022/06/23 11:04:14;;;;;;;7.25;2.65;;;;;;;34.72;20.72;100897.69;5025211;28;20099;-70
2022/06/23 11:07:00;;;;;;;5.18;2.30;;;;;;;35.59;21.41;100897.63;5026643;28;20049;-69
2022/06/23 11:09:41;;;;;;;11.25;2.47;;;;;;;35.18;23.40;100895.06;5023359;28;20395;-69
2022/06/23 11:12:19;;;;;;;5.55;2.50;;;;;;;35.59;20.13;100908.53;5024274;28;20041;-69
2022/06/23 11:14:56;;;;;;;5.60;2.50;;;;;;;34.56;20.60;100905.44;5024104;28;20073;-69
2022/06/23 11:17:35;;;;;;;6.10;2.30;;;;;;;34.66;22.54;100899.47;5025537;28;20045;-69
2022/06/23 11:20:17;;;;;;;3.97;2.00;;;;;;;35.40;25.95;100901.59;5023603;28;20050;-69
2022/06/23 11:22:51;;;;;;;3.22;2.00;;;;;;;35.39;18.79;100899.91;5025822;28;20057;-69
2022/06/23 11:25:40;;;;;;;5.45;2.50;;;;;;;33.91;21.73;100898.97;5024966;28;20081;-69
2022/06/23 11:28:18;;;;;;;5.57;2.50;;;;;;;34.13;20.52;100888.44;5026290;28;20414;-70
2022/06/23 11:30:58;;;;;;;6.22;2.25;;;;;;;31.69;22.67;100894.91;5024379;28;20041;-69
2022/06/23 11:34:01;;;;;;;10.68;2.35;;;;;;;32.79;25.37;100885.59;5026706;28;20477;-69
2022/06/23 11:36:47;;;;;;;5.63;2.45;;;;;;;33.98;23.00;100879.84;5003809;28;20049;-69
2022/06/23 11:39:46;;;;;;;6.93;2.35;;;;;;;33.45;24.26;100883.16;5026161;28;20049;-69
2022/06/23 11:42:38;;;;;;;5.95;2.38;;;;;;;34.18;21.45;100880.47;5024771;28;20624;-69
2022/06/23 11:45:20;;;;;;;5.35;2.35;;;;;;;34.30;23.05;100875.88;5025284;28;20049;-69
2022/06/23 11:47:58;;;;;;;4.30;2.40;;;;;;;34.53;23.49;100872.38;5025138;28;20099;-70
2022/06/23 11:50:35;;;;;;;5.50;2.15;;;;;;;33.87;20.44;100869.72;5023547;28;20225;-69
2022/06/23 11:53:19;;;;;;;4.60;2.47;;;;;;;33.18;21.07;100870.91;5025284;28;20095;-69
2022/06/23 11:55:50;;;;;;;6.13;2.40;;;;;;;33.95;21.55;100867.53;5024023;28;20099;-69
2022/06/23 11:58:50;;;;;;;4.50;2.38;;;;;;;34.65;22.94;100874.13;5024882;28;20071;-69
2022/06/23 12:01:18;;;;;;;4.63;2.33;;;;;;;33.52;21.11;100874.94;5023715;28;20743;-69
2022/06/23 12:04:14;;;;;;;6.00;2.15;;;;;;;34.64;24.35;100869.72;5024559;28;20079;-69
2022/06/23 12:06:53;;;;;;;6.05;2.45;;;;;;;34.18;24.09;100864.13;5025582;28;20637;-69
2022/06/23 12:09:26;;;;;;;4.90;2.28;;;;;;;34.93;23.05;100868.00;5023288;28;20088;-69
2022/06/23 12:11:53;;;;;;;10.05;2.33;;;;;;;35.04;20.09;100866.34;5025167;28;20049;-69
2022/06/23 12:14:22;;;;;;;3.58;2.08;;;;;;;34.36;21.12;100857.78;5026303;28;20099;-69
2022/06/23 12:16:56;;;;;;;3.30;1.98;;;;;;;34.10;23.50;100853.53;5015427;28;20045;-69